sensor_id;sensor_type;location;lat;lon;timestamp;P1;durP1;ratioP1;P2;durP2;ratioP2
36923;SDS011;22841;50.252;18.688;2022-12-13T00:07:22;18.98;;;8.70;;
36923;SDS011;22841;50.252;18.688;2022-12-13T00:13:09;17.85;;;9.18;;
36923;SDS011;22841;50.252;18.688;2022-12-13T00:15:35;21.25;;;10.30;;
36923;SDS011;22841;50.252;18.688;2022-12-13T00:18:07;19.73;;;10.10;;
36923;SDS011;22841;50.252;18.688;2022-12-13T00:20:49;22.33;;;9.88;;
36923;SDS011;22841;50.252;18.688;2022-12-13T00:23:16;19.83;;;9.43;;
36923;SDS011;22841;50.252;18.688;2022-12-13T00:25:42;18.45;;;9.10;;
36923;SDS011;22841;50.252;18.688;2022-12-13T00:28:10;21.83;;;9.77;;
36923;SDS011;22841;50.252;18.688;2022-12-13T00:30:36;18.63;;;9.02;;
36923;SDS011;22841;50.252;18.688;2022-12-13T00:33:02;17.85;;;9.38;;
36923;SDS011;22841;50.252;18.688;2022-12-13T00:38:52;16.63;;;8.88;;
36923;SDS011;22841;50.252;18.688;2022-12-13T00:41:29;20.05;;;8.82;;
36923;SDS011;22841;50.252;18.688;2022-12-13T00:43:56;21.73;;;9.20;;
36923;SDS011;22841;50.252;18.688;2022-12-13T00:46:23;13.75;;;8.30;;
36923;SDS011;22841;50.252;18.688;2022-12-13T00:48:51;20.00;;;8.52;;
36923;SDS011;22841;50.252;18.688;2022-12-13T00:51:19;20.30;;;9.15;;
36923;SDS011;22841;50.252;18.688;2022-12-13T00:53:48;15.30;;;9.00;;
36923;SDS011;22841;50.252;18.688;2022-12-13T00:58:50;14.57;;;7.95;;
36923;SDS011;22841;50.252;18.688;2022-12-13T01:01:18;18.80;;;8.52;;
36923;SDS011;22841;50.252;18.688;2022-12-13T01:03:47;13.75;;;8.15;;
36923;SDS011;22841;50.252;18.688;2022-12-13T01:06:14;15.98;;;7.78;;
36923;SDS011;22841;50.252;18.688;2022-12-13T01:08:53;17.52;;;7.88;;
36923;SDS011;22841;50.252;18.688;2022-12-13T01:11:20;13.77;;;7.50;;
36923;SDS011;22841;50.252;18.688;2022-12-13T01:13:47;15.48;;;9.00;;
36923;SDS011;22841;50.252;18.688;2022-12-13T01:16:13;13.65;;;8.05;;
36923;SDS011;22841;50.252;18.688;2022-12-13T01:18:40;12.63;;;7.15;;
36923;SDS011;22841;50.252;18.688;2022-12-13T01:21:11;18.98;;;9.55;;
36923;SDS011;22841;50.252;18.688;2022-12-13T01:23:40;15.63;;;7.68;;
36923;SDS011;22841;50.252;18.688;2022-12-13T01:26:11;17.05;;;8.50;;
36923;SDS011;22841;50.252;18.688;2022-12-13T01:31:30;17.73;;;9.50;;
36923;SDS011;22841;50.252;18.688;2022-12-13T01:33:56;19.33;;;9.02;;
36923;SDS011;22841;50.252;18.688;2022-12-13T01:36:23;16.70;;;8.52;;
36923;SDS011;22841;50.252;18.688;2022-12-13T01:39:02;20.63;;;10.10;;
36923;SDS011;22841;50.252;18.688;2022-12-13T01:41:28;20.90;;;9.45;;
36923;SDS011;22841;50.252;18.688;2022-12-13T01:46:37;17.73;;;9.95;;
36923;SDS011;22841;50.252;18.688;2022-12-13T01:49:16;18.50;;;9.57;;
36923;SDS011;22841;50.252;18.688;2022-12-13T01:51:47;18.45;;;9.90;;
36923;SDS011;22841;50.252;18.688;2022-12-13T01:54:27;24.35;;;11.15;;
36923;SDS011;22841;50.252;18.688;2022-12-13T01:57:18;16.35;;;9.00;;
36923;SDS011;22841;50.252;18.688;2022-12-13T01:59:46;17.80;;;9.93;;
36923;SDS011;22841;50.252;18.688;2022-12-13T02:07:41;22.27;;;11.85;;
36923;SDS011;22841;50.252;18.688;2022-12-13T02:10:09;31.08;;;14.00;;
36923;SDS011;22841;50.252;18.688;2022-12-13T02:12:36;26.65;;;11.88;;
36923;SDS011;22841;50.252;18.688;2022-12-13T02:18:41;28.98;;;13.23;;
36923;SDS011;22841;50.252;18.688;2022-12-13T02:24:51;27.00;;;13.07;;
36923;SDS011;22841;50.252;18.688;2022-12-13T02:51:45;22.27;;;11.15;;
36923;SDS011;22841;50.252;18.688;2022-12-13T02:54:12;17.00;;;10.77;;
36923;SDS011;22841;50.252;18.688;2022-12-13T02:56:38;18.90;;;10.90;;
36923;SDS011;22841;50.252;18.688;2022-12-13T03:14:38;25.58;;;12.18;;
36923;SDS011;22841;50.252;18.688;2022-12-13T03:17:11;22.65;;;11.10;;
36923;SDS011;22841;50.252;18.688;2022-12-13T03:19:41;26.80;;;13.05;;
36923;SDS011;22841;50.252;18.688;2022-12-13T03:22:08;23.60;;;11.95;;
36923;SDS011;22841;50.252;18.688;2022-12-13T03:24:34;27.45;;;12.98;;
36923;SDS011;22841;50.252;18.688;2022-12-13T03:27:00;29.60;;;14.18;;
36923;SDS011;22841;50.252;18.688;2022-12-13T03:29:27;32.60;;;12.82;;
36923;SDS011;22841;50.252;18.688;2022-12-13T03:31:53;27.38;;;13.32;;
36923;SDS011;22841;50.252;18.688;2022-12-13T03:34:19;23.90;;;13.35;;
36923;SDS011;22841;50.252;18.688;2022-12-13T03:36:46;32.42;;;14.55;;
36923;SDS011;22841;50.252;18.688;2022-12-13T03:39:12;36.28;;;17.63;;
36923;SDS011;22841;50.252;18.688;2022-12-13T03:41:38;40.40;;;18.48;;
36923;SDS011;22841;50.252;18.688;2022-12-13T03:44:05;31.48;;;16.45;;
36923;SDS011;22841;50.252;18.688;2022-12-13T03:46:33;30.30;;;14.88;;
36923;SDS011;22841;50.252;18.688;2022-12-13T03:48:59;31.25;;;13.75;;
36923;SDS011;22841;50.252;18.688;2022-12-13T03:54:15;27.73;;;11.52;;
36923;SDS011;22841;50.252;18.688;2022-12-13T03:56:41;23.30;;;11.98;;
36923;SDS011;22841;50.252;18.688;2022-12-13T03:59:08;28.73;;;12.75;;
36923;SDS011;22841;50.252;18.688;2022-12-13T04:04:49;23.42;;;11.82;;
36923;SDS011;22841;50.252;18.688;2022-12-13T04:07:15;28.05;;;12.57;;
36923;SDS011;22841;50.252;18.688;2022-12-13T04:27:53;31.85;;;15.63;;
36923;SDS011;22841;50.252;18.688;2022-12-13T04:45:54;48.70;;;19.70;;
36923;SDS011;22841;50.252;18.688;2022-12-13T04:49:10;42.80;;;18.40;;
36923;SDS011;22841;50.252;18.688;2022-12-13T04:52:09;38.28;;;16.60;;
36923;SDS011;22841;50.252;18.688;2022-12-13T04:55:07;36.45;;;15.30;;
36923;SDS011;22841;50.252;18.688;2022-12-13T04:57:58;55.23;;;18.13;;
36923;SDS011;22841;50.252;18.688;2022-12-13T05:00:24;61.35;;;18.92;;
36923;SDS011;22841;50.252;18.688;2022-12-13T05:02:51;60.47;;;20.08;;
36923;SDS011;22841;50.252;18.688;2022-12-13T05:05:17;46.10;;;17.13;;
36923;SDS011;22841;50.252;18.688;2022-12-13T05:07:44;57.17;;;18.35;;
36923;SDS011;22841;50.252;18.688;2022-12-13T05:10:10;39.25;;;14.18;;
36923;SDS011;22841;50.252;18.688;2022-12-13T05:12:37;38.70;;;15.10;;
36923;SDS011;22841;50.252;18.688;2022-12-13T05:15:04;44.20;;;15.48;;
36923;SDS011;22841;50.252;18.688;2022-12-13T05:17:31;42.20;;;16.80;;
36923;SDS011;22841;50.252;18.688;2022-12-13T05:20:11;49.03;;;17.85;;
36923;SDS011;22841;50.252;18.688;2022-12-13T05:22:38;50.13;;;18.67;;
36923;SDS011;22841;50.252;18.688;2022-12-13T05:25:05;48.03;;;16.77;;
36923;SDS011;22841;50.252;18.688;2022-12-13T05:27:32;37.70;;;15.55;;
36923;SDS011;22841;50.252;18.688;2022-12-13T05:29:58;46.67;;;16.35;;
36923;SDS011;22841;50.252;18.688;2022-12-13T05:49:29;40.42;;;15.35;;
36923;SDS011;22841;50.252;18.688;2022-12-13T05:51:56;54.05;;;24.67;;
36923;SDS011;22841;50.252;18.688;2022-12-13T05:54:29;50.58;;;18.27;;
36923;SDS011;22841;50.252;18.688;2022-12-13T05:56:56;55.92;;;20.83;;
36923;SDS011;22841;50.252;18.688;2022-12-13T05:59:22;55.97;;;18.92;;
36923;SDS011;22841;50.252;18.688;2022-12-13T06:01:49;48.92;;;19.13;;
36923;SDS011;22841;50.252;18.688;2022-12-13T06:04:15;50.55;;;17.85;;
36923;SDS011;22841;50.252;18.688;2022-12-13T06:06:41;45.92;;;17.23;;
36923;SDS011;22841;50.252;18.688;2022-12-13T06:09:08;47.65;;;18.15;;
36923;SDS011;22841;50.252;18.688;2022-12-13T06:11:34;55.67;;;18.50;;
36923;SDS011;22841;50.252;18.688;2022-12-13T06:14:00;44.67;;;17.20;;
36923;SDS011;22841;50.252;18.688;2022-12-13T06:16:26;54.25;;;22.17;;
36923;SDS011;22841;50.252;18.688;2022-12-13T06:35:04;76.22;;;23.10;;
36923;SDS011;22841;50.252;18.688;2022-12-13T06:38:02;67.70;;;24.15;;
36923;SDS011;22841;50.252;18.688;2022-12-13T06:40:29;67.55;;;23.27;;
36923;SDS011;22841;50.252;18.688;2022-12-13T06:42:56;59.72;;;22.92;;
36923;SDS011;22841;50.252;18.688;2022-12-13T06:45:23;57.83;;;22.42;;
36923;SDS011;22841;50.252;18.688;2022-12-13T06:47:49;67.65;;;23.88;;
36923;SDS011;22841;50.252;18.688;2022-12-13T07:03:56;67.80;;;26.25;;
36923;SDS011;22841;50.252;18.688;2022-12-13T07:06:23;44.30;;;22.60;;
36923;SDS011;22841;50.252;18.688;2022-12-13T07:11:46;40.10;;;21.35;;
36923;SDS011;22841;50.252;18.688;2022-12-13T07:14:14;33.85;;;16.75;;
36923;SDS011;22841;50.252;18.688;2022-12-13T07:16:40;38.10;;;17.60;;
36923;SDS011;22841;50.252;18.688;2022-12-13T07:19:06;47.95;;;18.90;;
36923;SDS011;22841;50.252;18.688;2022-12-13T07:24:27;58.25;;;22.27;;
36923;SDS011;22841;50.252;18.688;2022-12-13T07:26:54;54.47;;;24.92;;
36923;SDS011;22841;50.252;18.688;2022-12-13T07:29:20;37.92;;;20.27;;
36923;SDS011;22841;50.252;18.688;2022-12-13T07:31:46;46.33;;;19.83;;
36923;SDS011;22841;50.252;18.688;2022-12-13T07:34:13;49.20;;;22.17;;
36923;SDS011;22841;50.252;18.688;2022-12-13T07:36:39;58.17;;;25.60;;
36923;SDS011;22841;50.252;18.688;2022-12-13T07:39:05;49.45;;;22.58;;
36923;SDS011;22841;50.252;18.688;2022-12-13T07:41:32;46.58;;;19.73;;
36923;SDS011;22841;50.252;18.688;2022-12-13T07:43:58;38.25;;;17.02;;
36923;SDS011;22841;50.252;18.688;2022-12-13T07:46:24;32.67;;;16.10;;
36923;SDS011;22841;50.252;18.688;2022-12-13T07:48:53;27.25;;;13.18;;
36923;SDS011;22841;50.252;18.688;2022-12-13T07:51:20;31.17;;;14.63;;
36923;SDS011;22841;50.252;18.688;2022-12-13T07:53:47;38.17;;;16.88;;
36923;SDS011;22841;50.252;18.688;2022-12-13T07:56:13;28.92;;;15.07;;
36923;SDS011;22841;50.252;18.688;2022-12-13T09:57:58;29.38;;;12.02;;
36923;SDS011;22841;50.252;18.688;2022-12-13T10:00:33;33.25;;;14.05;;
36923;SDS011;22841;50.252;18.688;2022-12-13T10:05:38;35.80;;;16.33;;
36923;SDS011;22841;50.252;18.688;2022-12-13T10:08:15;47.47;;;20.27;;
36923;SDS011;22841;50.252;18.688;2022-12-13T10:10:48;87.38;;;32.47;;
36923;SDS011;22841;50.252;18.688;2022-12-13T10:16:18;96.82;;;33.20;;
36923;SDS011;22841;50.252;18.688;2022-12-13T10:25:42;47.03;;;19.83;;
36923;SDS011;22841;50.252;18.688;2022-12-13T10:47:59;37.67;;;15.95;;
36923;SDS011;22841;50.252;18.688;2022-12-13T10:50:29;35.20;;;16.08;;
36923;SDS011;22841;50.252;18.688;2022-12-13T10:52:56;35.95;;;17.65;;
36923;SDS011;22841;50.252;18.688;2022-12-13T14:37:00;42.08;;;17.10;;
36923;SDS011;22841;50.252;18.688;2022-12-13T14:39:32;46.72;;;20.08;;
36923;SDS011;22841;50.252;18.688;2022-12-13T14:42:00;45.17;;;20.55;;
36923;SDS011;22841;50.252;18.688;2022-12-13T14:44:42;53.83;;;23.33;;
36923;SDS011;22841;50.252;18.688;2022-12-13T14:47:09;57.00;;;24.25;;
36923;SDS011;22841;50.252;18.688;2022-12-13T14:53:00;47.88;;;19.63;;
36923;SDS011;22841;50.252;18.688;2022-12-13T14:58:37;43.20;;;19.77;;
36923;SDS011;22841;50.252;18.688;2022-12-13T15:01:04;58.95;;;22.73;;
36923;SDS011;22841;50.252;18.688;2022-12-13T15:03:48;52.13;;;23.10;;
36923;SDS011;22841;50.252;18.688;2022-12-13T15:06:24;49.55;;;22.83;;
36923;SDS011;22841;50.252;18.688;2022-12-13T15:08:50;58.33;;;24.55;;
36923;SDS011;22841;50.252;18.688;2022-12-13T15:11:17;60.42;;;23.27;;
36923;SDS011;22841;50.252;18.688;2022-12-13T15:13:44;56.67;;;26.10;;
36923;SDS011;22841;50.252;18.688;2022-12-13T15:16:23;53.22;;;23.25;;
36923;SDS011;22841;50.252;18.688;2022-12-13T15:24:33;56.20;;;21.52;;
36923;SDS011;22841;50.252;18.688;2022-12-13T15:27:03;51.65;;;23.33;;
36923;SDS011;22841;50.252;18.688;2022-12-13T15:29:30;52.38;;;22.30;;
36923;SDS011;22841;50.252;18.688;2022-12-13T15:31:58;49.58;;;21.33;;
36923;SDS011;22841;50.252;18.688;2022-12-13T16:19:11;84.57;;;33.65;;
36923;SDS011;22841;50.252;18.688;2022-12-13T16:21:39;87.15;;;34.75;;
36923;SDS011;22841;50.252;18.688;2022-12-13T16:24:06;85.45;;;38.08;;
36923;SDS011;22841;50.252;18.688;2022-12-13T16:26:32;92.80;;;38.97;;
36923;SDS011;22841;50.252;18.688;2022-12-13T16:28:58;92.25;;;39.25;;
36923;SDS011;22841;50.252;18.688;2022-12-13T16:34:23;84.22;;;39.47;;
36923;SDS011;22841;50.252;18.688;2022-12-13T16:36:49;94.78;;;40.17;;
36923;SDS011;22841;50.252;18.688;2022-12-13T16:39:15;85.63;;;39.67;;
36923;SDS011;22841;50.252;18.688;2022-12-13T16:41:42;91.72;;;39.50;;
36923;SDS011;22841;50.252;18.688;2022-12-13T16:44:15;83.88;;;38.25;;
36923;SDS011;22841;50.252;18.688;2022-12-13T16:46:58;94.13;;;40.75;;
36923;SDS011;22841;50.252;18.688;2022-12-13T16:49:26;98.43;;;41.47;;
36923;SDS011;22841;50.252;18.688;2022-12-13T16:51:54;100.32;;;39.33;;
36923;SDS011;22841;50.252;18.688;2022-12-13T16:54:21;102.97;;;39.58;;
36923;SDS011;22841;50.252;18.688;2022-12-13T16:56:49;94.97;;;41.38;;
36923;SDS011;22841;50.252;18.688;2022-12-13T16:59:17;99.70;;;41.53;;
36923;SDS011;22841;50.252;18.688;2022-12-13T17:01:44;112.22;;;43.40;;
36923;SDS011;22841;50.252;18.688;2022-12-13T17:04:11;113.78;;;42.25;;
36923;SDS011;22841;50.252;18.688;2022-12-13T17:06:39;100.68;;;39.33;;
36923;SDS011;22841;50.252;18.688;2022-12-13T17:09:05;101.10;;;44.60;;
36923;SDS011;22841;50.252;18.688;2022-12-13T17:11:32;108.70;;;43.60;;
36923;SDS011;22841;50.252;18.688;2022-12-13T17:13:59;109.22;;;43.05;;
36923;SDS011;22841;50.252;18.688;2022-12-13T17:16:25;115.13;;;45.53;;
36923;SDS011;22841;50.252;18.688;2022-12-13T17:18:51;125.82;;;49.35;;
36923;SDS011;22841;50.252;18.688;2022-12-13T17:21:20;110.60;;;44.95;;
36923;SDS011;22841;50.252;18.688;2022-12-13T17:23:54;100.45;;;42.95;;
36923;SDS011;22841;50.252;18.688;2022-12-13T17:26:21;114.70;;;46.13;;
36923;SDS011;22841;50.252;18.688;2022-12-13T17:29:06;118.78;;;49.97;;
36923;SDS011;22841;50.252;18.688;2022-12-13T17:31:32;113.57;;;44.33;;
36923;SDS011;22841;50.252;18.688;2022-12-13T17:33:58;109.72;;;42.30;;
36923;SDS011;22841;50.252;18.688;2022-12-13T17:36:24;116.22;;;44.28;;
36923;SDS011;22841;50.252;18.688;2022-12-13T17:38:55;108.15;;;41.85;;
36923;SDS011;22841;50.252;18.688;2022-12-13T17:41:22;111.75;;;45.63;;
36923;SDS011;22841;50.252;18.688;2022-12-13T17:43:48;110.05;;;44.60;;
36923;SDS011;22841;50.252;18.688;2022-12-13T17:46:15;123.18;;;46.20;;
36923;SDS011;22841;50.252;18.688;2022-12-13T17:48:50;121.85;;;46.53;;
36923;SDS011;22841;50.252;18.688;2022-12-13T17:51:16;108.53;;;43.83;;
36923;SDS011;22841;50.252;18.688;2022-12-13T17:53:43;121.45;;;44.92;;
36923;SDS011;22841;50.252;18.688;2022-12-13T17:56:10;112.63;;;42.83;;
36923;SDS011;22841;50.252;18.688;2022-12-13T17:58:39;124.55;;;46.28;;
36923;SDS011;22841;50.252;18.688;2022-12-13T18:01:12;124.03;;;45.47;;
36923;SDS011;22841;50.252;18.688;2022-12-13T18:03:43;121.22;;;46.20;;
36923;SDS011;22841;50.252;18.688;2022-12-13T18:06:09;113.95;;;46.17;;
36923;SDS011;22841;50.252;18.688;2022-12-13T18:08:36;129.95;;;49.33;;
36923;SDS011;22841;50.252;18.688;2022-12-13T18:11:10;142.38;;;49.75;;
36923;SDS011;22841;50.252;18.688;2022-12-13T18:13:37;154.70;;;57.13;;
36923;SDS011;22841;50.252;18.688;2022-12-13T18:16:04;160.65;;;58.47;;
36923;SDS011;22841;50.252;18.688;2022-12-13T18:18:32;163.90;;;59.40;;
